»·PEaware :: C-EDGE KHND-KSBD

C-EDGE :: KHND-KSBD

FLIGHT INFORMATION

Flight Status: Arrived
Operator: Privately registered:
Canada
More flights under this callsign
Pilot: Scott G. (88)
Aircraft: CESSNA 340
(C340)
More flights by this aircraft type
Origin: KHND Henderson
United States
Destination: KSBD San Bernardino Intl
United States
More flights between these airports :: More routes between these airports
Route: +LAS V538 GFS HEC V21 ARRAN
File this flight plan on PilotEdge
Remarks: X-Plane 11 crashing often, FYI.
Altitude:
(Current/Filed)
14,000ft
Speed:
(Current/Filed)
2000kts
Departed: 01-Aug-17 10:19 AM
Arrived: 01-Aug-17 11:18 AM
Distance/Time
Traveled:
153nm/0:59
Distance/Time
To Go:
Arrived

Flight Plot

Page will automatically refresh every two minutes.

Flight plan parsing failed; only flown route is shown


Map Options




Map Legend


Flown Route
Filed Route
Departure Airport
Arrival Airport
Navaid (VOR, NDB)
Fix

Horizontal Profiles

Position Reports

Time Latitude Longitude Heading Altitude Ground
Speed
01-Aug-17 09:07 35.975710 -115.138731 269 2496ft 0kts
01-Aug-17 09:08 35.975710 -115.138731 269 2496ft 0kts
01-Aug-17 09:09 35.975710 -115.138731 269 2496ft 0kts
01-Aug-17 09:10 35.975710 -115.138731 269 2496ft 0kts
01-Aug-17 09:11 35.975710 -115.138731 269 2496ft 0kts
01-Aug-17 09:12 35.975710 -115.138731 269 2496ft 0kts
01-Aug-17 09:13 35.975710 -115.138731 269 2496ft 0kts
01-Aug-17 09:14 35.975710 -115.138731 269 2496ft 0kts
01-Aug-17 09:15 35.975710 -115.138731 269 2496ft 0kts
01-Aug-17 09:16 35.975710 -115.138731 269 2496ft 0kts
01-Aug-17 09:17 35.975710 -115.138731 269 2496ft 0kts
01-Aug-17 09:18 35.975710 -115.138731 269 2496ft 0kts
01-Aug-17 09:19 35.975710 -115.138731 269 2496ft 0kts
01-Aug-17 09:20 35.975710 -115.138731 269 2496ft 0kts
01-Aug-17 09:21 35.975710 -115.138731 269 2496ft 0kts
01-Aug-17 09:22 35.975710 -115.138731 269 2496ft 0kts
01-Aug-17 09:23 35.975710 -115.138731 269 2496ft 0kts
01-Aug-17 09:24 35.975710 -115.138731 269 2496ft 0kts
01-Aug-17 09:25 35.975710 -115.138731 269 2496ft 0kts
01-Aug-17 09:26 35.975710 -115.138731 269 2496ft 0kts
01-Aug-17 09:27 35.975710 -115.138731 269 2496ft 0kts
01-Aug-17 09:28 35.975710 -115.138731 269 2496ft 0kts
01-Aug-17 09:29 35.975710 -115.138731 269 2496ft 0kts
01-Aug-17 09:30 35.975710 -115.138731 269 2496ft 0kts
01-Aug-17 09:31 35.975710 -115.138731 269 2496ft 0kts
01-Aug-17 09:32 35.975710 -115.138731 269 2496ft 0kts
01-Aug-17 09:33 35.975710 -115.138731 269 2496ft 0kts
01-Aug-17 09:34 35.975710 -115.138731 269 2496ft 0kts
01-Aug-17 09:35 35.975710 -115.138731 269 2496ft 0kts
01-Aug-17 09:36 35.975710 -115.138731 269 2496ft 0kts
01-Aug-17 09:37 35.975710 -115.138731 269 2496ft 0kts
01-Aug-17 09:38 35.975710 -115.138731 269 2496ft 0kts
01-Aug-17 09:39 35.975710 -115.138731 269 2496ft 0kts
01-Aug-17 09:40 35.975710 -115.138731 269 2496ft 0kts
01-Aug-17 09:41 35.975710 -115.138731 269 2496ft 0kts
01-Aug-17 09:42 35.975710 -115.138731 269 2496ft 0kts
01-Aug-17 09:43 35.975710 -115.138731 269 2496ft 0kts
01-Aug-17 09:44 35.975710 -115.138731 269 2496ft 0kts
01-Aug-17 09:45 35.975710 -115.138731 269 2496ft 0kts
01-Aug-17 09:46 35.975710 -115.138731 269 2496ft 0kts
01-Aug-17 09:47 35.975710 -115.138731 269 2496ft 0kts
01-Aug-17 09:48 35.975710 -115.138731 269 2496ft 0kts
01-Aug-17 09:49 35.975710 -115.138731 269 2496ft 0kts
01-Aug-17 09:50 35.975710 -115.138731 269 2496ft 0kts
01-Aug-17 09:51 35.975710 -115.138731 269 2496ft 0kts
01-Aug-17 09:52 35.975710 -115.138731 269 2496ft 0kts
01-Aug-17 09:53 35.975710 -115.138731 269 2496ft 0kts
01-Aug-17 09:54 35.975710 -115.138731 269 2496ft 0kts
01-Aug-17 09:55 35.975710 -115.138731 269 2496ft 0kts
01-Aug-17 09:56 35.975710 -115.138731 269 2496ft 0kts
01-Aug-17 09:57 35.975710 -115.138731 269 2496ft 0kts
01-Aug-17 09:58 35.975710 -115.138731 269 2496ft 0kts
01-Aug-17 09:59 35.975710 -115.138731 269 2496ft 0kts
01-Aug-17 10:00 35.975710 -115.138731 269 2496ft 0kts
01-Aug-17 10:01 35.975710 -115.138731 269 2496ft 0kts
01-Aug-17 10:02 35.975710 -115.138731 269 2496ft 0kts
01-Aug-17 10:03 35.975710 -115.138731 269 2496ft 0kts
01-Aug-17 10:04 35.975710 -115.138731 269 2496ft 0kts
01-Aug-17 10:05 35.975710 -115.138731 269 2496ft 0kts
01-Aug-17 10:06 35.975713 -115.138750 291 2496ft 1kts
01-Aug-17 10:07 35.975935 -115.137153 90 2496ft 0kts
01-Aug-17 10:08 35.975330 -115.136929 176 2496ft 9kts
01-Aug-17 10:09 35.974666 -115.136917 177 2496ft 0kts
01-Aug-17 10:10 35.974666 -115.136917 177 2496ft 0kts
01-Aug-17 10:11 35.974666 -115.136917 177 2496ft 0kts
01-Aug-17 10:12 35.974666 -115.136917 177 2496ft 0kts
01-Aug-17 10:13 35.974666 -115.136917 177 2496ft 0kts
01-Aug-17 10:14 35.974666 -115.136917 177 2496ft 0kts
01-Aug-17 10:15 35.974666 -115.136917 177 2496ft 0kts
01-Aug-17 10:16 35.974666 -115.136917 177 2496ft 0kts
01-Aug-17 10:17 35.975027 -115.136390 179 2496ft 2kts
01-Aug-17 10:18 35.969739 -115.136449 185 2496ft 29kts
01-Aug-17 10:19 35.963140 -115.136325 104 2496ft 0kts
01-Aug-17 10:20 35.963140 -115.136325 104 2496ft 0kts
01-Aug-17 10:21 35.963138 -115.136315 104 2496ft 0kts
01-Aug-17 10:22 35.971975 -115.135379 0 2502ft 115kts
01-Aug-17 10:23 36.002333 -115.127115 51 3956ft 131kts
01-Aug-17 10:24 35.986518 -115.109195 190 5553ft 133kts
01-Aug-17 10:25 35.949954 -115.120878 196 7232ft 141kts
01-Aug-17 10:26 35.911861 -115.137640 195 8605ft 149kts
01-Aug-17 10:27 35.873527 -115.154459 191 10015ft 149kts
01-Aug-17 10:28 35.834111 -115.168973 190 11296ft 151kts
01-Aug-17 10:29 35.794037 -115.184823 192 13024ft 157kts
01-Aug-17 10:30 35.749642 -115.199604 193 14094ft 183kts
01-Aug-17 10:31 35.696306 -115.217585 191 14001ft 205kts
01-Aug-17 10:32 35.641081 -115.234916 191 13921ft 204kts
01-Aug-17 10:33 35.586297 -115.252411 192 13944ft 199kts
01-Aug-17 10:34 35.533118 -115.271292 193 14029ft 201kts
01-Aug-17 10:35 35.478617 -115.290010 192 14029ft 208kts
01-Aug-17 10:36 35.423062 -115.310994 211 14015ft 213kts
01-Aug-17 10:37 35.382036 -115.363191 208 14020ft 212kts
01-Aug-17 10:38 35.341499 -115.413479 232 14027ft 217kts
01-Aug-17 10:39 35.310239 -115.471297 236 14026ft 217kts
01-Aug-17 10:40 35.278147 -115.533628 236 14027ft 216kts
01-Aug-17 10:41 35.246341 -115.595559 236 14027ft 216kts
01-Aug-17 10:42 35.214322 -115.657832 235 14026ft 216kts
01-Aug-17 10:43 35.182422 -115.719802 235 14022ft 216kts
01-Aug-17 10:44 35.150398 -115.781918 235 14016ft 216kts
01-Aug-17 10:45 35.118389 -115.843961 235 14009ft 216kts
01-Aug-17 10:46 35.086249 -115.906165 235 14001ft 216kts
01-Aug-17 10:47 35.054199 -115.968138 235 13998ft 216kts
01-Aug-17 10:48 35.022129 -116.030110 235 14001ft 216kts
01-Aug-17 10:49 34.990230 -116.091751 235 14009ft 215kts
01-Aug-17 10:50 34.958246 -116.153410 235 14016ft 215kts
01-Aug-17 10:51 34.926235 -116.215028 235 14014ft 215kts
01-Aug-17 10:52 34.894451 -116.276138 234 14003ft 215kts
01-Aug-17 10:53 34.867065 -116.328726 234 13987ft 214kts
01-Aug-17 10:54 34.835144 -116.389877 234 13969ft 214kts
01-Aug-17 10:55 34.803108 -116.451257 234 13963ft 214kts
01-Aug-17 10:56 34.764613 -116.504893 219 13964ft 211kts
01-Aug-17 10:57 34.722601 -116.554855 221 13963ft 211kts
01-Aug-17 10:58 34.681235 -116.605491 222 13966ft 212kts
01-Aug-17 10:59 34.639873 -116.656258 221 13962ft 212kts
01-Aug-17 11:00 34.598591 -116.706868 221 13961ft 211kts
01-Aug-17 11:01 34.557393 -116.757317 221 13961ft 211kts
01-Aug-17 11:02 34.521859 -116.800726 221 13961ft 211kts
01-Aug-17 11:03 34.480535 -116.851163 221 13961ft 211kts
01-Aug-17 11:04 34.439242 -116.901544 221 13959ft 211kts
01-Aug-17 11:05 34.402627 -116.946198 220 13947ft 213kts
01-Aug-17 11:06 34.360593 -116.997289 219 13925ft 216kts
01-Aug-17 11:07 34.318319 -117.048587 219 13923ft 219kts
01-Aug-17 11:08 34.272595 -117.103786 219 12759ft 239kts
01-Aug-17 11:09 34.226417 -117.160973 231 11652ft 248kts
01-Aug-17 11:10 34.194847 -117.226616 235 10454ft 233kts
01-Aug-17 11:11 34.163817 -117.293684 235 9005ft 225kts
01-Aug-17 11:12 34.135257 -117.356171 235 7567ft 206kts
01-Aug-17 11:13 34.107841 -117.414657 235 6148ft 193kts
01-Aug-17 11:14 34.081509 -117.467669 235 4742ft 179kts
01-Aug-17 11:15 34.045939 -117.492316 136 3299ft 188kts
01-Aug-17 11:16 34.041037 -117.432350 90 3250ft 137kts
01-Aug-17 11:17 34.043847 -117.379564 91 3892ft 175kts
01-Aug-17 11:18 34.045698 -117.324617 78 3854ft 162kts
01-Aug-17 11:19 34.075858 -117.298242 55 1847ft 121kts
01-Aug-17 11:20 34.086637 -117.264106 74 1441ft 101kts
01-Aug-17 11:21 34.094746 -117.240556 34 1161ft 30kts
01-Aug-17 11:22 34.095089 -117.240266 34 1161ft 9kts
01-Aug-17 11:23 34.100866 -117.239527 330 1161ft 29kts
01-Aug-17 11:24 34.104474 -117.245681 273 1161ft 13kts
01-Aug-17 11:25 34.104180 -117.245595 189 1161ft 0kts

Navigation Log

Ident Type
Flight plan parsing failed, navigation log unavailable